JES3084 SACO-SABE
Flight info
| Callsign | JES3084 |
|---|---|
| Flight time | 1h 12m |
| Altitude | 33000 |
| Route | UTRAX UW24 SNT SNT9R |
| Aircraft | A320/M-SDE3FGHIRWY/LB1 |
Departure
| Time | 2026-05-07 21:14 |
|---|---|
| Airport | Ingeniero Aeronáutico Ambrosio L.V. Taravella International Airport (SACO) |
Arrival
| Time | 2026-05-07 22:27 |
|---|---|
| Airport | Aeroparque Jorge Newbery (SABE) |
| Time | Latitude | Longitude | Altitude | Speed | Heading |
|---|---|---|---|---|---|
| 2026-05-07 20:45 | -31.31612 | -64.21170 | 1613 ft | 0 kts | 268° |
| 2026-05-07 21:03 | -31.31612 | -64.21169 | 1613 ft | 2 kts | 268° |
| 2026-05-07 21:03 | -31.31612 | -64.21153 | 1621 ft | 3 kts | 268° |
| 2026-05-07 21:03 | -31.31611 | -64.21128 | 1619 ft | 3 kts | 268° |
| 2026-05-07 21:03 | -31.31608 | -64.21107 | 1620 ft | 2 kts | 218° |
| 2026-05-07 21:04 | -31.31600 | -64.21101 | 1621 ft | 0 kts | 181° |
| 2026-05-07 21:07 | -31.31605 | -64.21101 | 1619 ft | 2 kts | 180° |
| 2026-05-07 21:08 | -31.31646 | -64.21101 | 1626 ft | 10 kts | 180° |
| 2026-05-07 21:08 | -31.31727 | -64.21091 | 1617 ft | 13 kts | 148° |
| 2026-05-07 21:08 | -31.31776 | -64.21044 | 1615 ft | 14 kts | 146° |
| 2026-05-07 21:08 | -31.31880 | -64.21028 | 1617 ft | 17 kts | 179° |
| 2026-05-07 21:09 | -31.32001 | -64.21026 | 1617 ft | 18 kts | 179° |
| 2026-05-07 21:09 | -31.32131 | -64.21025 | 1613 ft | 19 kts | 179° |
| 2026-05-07 21:09 | -31.32265 | -64.21022 | 1620 ft | 20 kts | 179° |
| 2026-05-07 21:09 | -31.32347 | -64.21020 | 1615 ft | 12 kts | 179° |
| 2026-05-07 21:10 | -31.32422 | -64.20982 | 1619 ft | 13 kts | 128° |
| 2026-05-07 21:10 | -31.32424 | -64.20875 | 1613 ft | 15 kts | 57° |
| 2026-05-07 21:10 | -31.32339 | -64.20774 | 1621 ft | 22 kts | 45° |
| 2026-05-07 21:10 | -31.32214 | -64.20631 | 1617 ft | 28 kts | 44° |
| 2026-05-07 21:11 | -31.32070 | -64.20466 | 1621 ft | 29 kts | 45° |
| 2026-05-07 21:11 | -31.31924 | -64.20294 | 1618 ft | 30 kts | 45° |
| 2026-05-07 21:11 | -31.31605 | -64.19931 | 1618 ft | 34 kts | 44° |
| 2026-05-07 21:12 | -31.31434 | -64.19735 | 1616 ft | 35 kts | 44° |
| 2026-05-07 21:12 | -31.31260 | -64.19535 | 1619 ft | 35 kts | 45° |
| 2026-05-07 21:12 | -31.31086 | -64.19335 | 1620 ft | 34 kts | 44° |
| 2026-05-07 21:12 | -31.31001 | -64.19242 | 1620 ft | 14 kts | 43° |
| 2026-05-07 21:13 | -31.30938 | -64.19190 | 1614 ft | 2 kts | 327° |
| 2026-05-07 21:13 | -31.30943 | -64.19199 | 1622 ft | 1 kts | 231° |
| 2026-05-07 21:13 | -31.30968 | -64.19229 | 1620 ft | 17 kts | 223° |
| 2026-05-07 21:13 | -31.31227 | -64.19519 | 1615 ft | 83 kts | 224° |
| 2026-05-07 21:14 | -31.31769 | -64.20131 | 1621 ft | 130 kts | 224° |
| 2026-05-07 21:14 | -31.32452 | -64.20882 | 2069 ft | 135 kts | 218° |
| 2026-05-07 21:14 | -31.33139 | -64.21632 | 2666 ft | 135 kts | 218° |
| 2026-05-07 21:14 | -31.33873 | -64.22419 | 2934 ft | 155 kts | 219° |
| 2026-05-07 21:15 | -31.34710 | -64.23314 | 3219 ft | 176 kts | 215° |
| 2026-05-07 21:15 | -31.35926 | -64.23680 | 3491 ft | 197 kts | 172° |
| 2026-05-07 21:15 | -31.37192 | -64.22819 | 3754 ft | 233 kts | 137° |
| 2026-05-07 21:15 | -31.38202 | -64.21188 | 4169 ft | 259 kts | 126° |
| 2026-05-07 21:16 | -31.39112 | -64.19314 | 4955 ft | 269 kts | 123° |
| 2026-05-07 21:16 | -31.40031 | -64.17394 | 5843 ft | 272 kts | 125° |
| 2026-05-07 21:16 | -31.41012 | -64.15489 | 6692 ft | 274 kts | 127° |
| 2026-05-07 21:16 | -31.42055 | -64.13606 | 7522 ft | 277 kts | 129° |
| 2026-05-07 21:17 | -31.43141 | -64.11733 | 8378 ft | 280 kts | 131° |
| 2026-05-07 21:17 | -31.44261 | -64.09855 | 9216 ft | 282 kts | 132° |
| 2026-05-07 21:17 | -31.45404 | -64.07971 | 10035 ft | 285 kts | 134° |
| 2026-05-07 21:17 | -31.46594 | -64.06034 | 10471 ft | 302 kts | 134° |
| 2026-05-07 21:18 | -31.47872 | -64.03975 | 10729 ft | 322 kts | 134° |
| 2026-05-07 21:18 | -31.49190 | -64.01835 | 11287 ft | 331 kts | 133° |
| 2026-05-07 21:18 | -31.50541 | -63.99622 | 11935 ft | 336 kts | 133° |
| 2026-05-07 21:18 | -31.51905 | -63.97376 | 12588 ft | 341 kts | 132° |
| 2026-05-07 21:19 | -31.53284 | -63.95089 | 13245 ft | 346 kts | 132° |
| 2026-05-07 21:19 | -31.54684 | -63.92768 | 13855 ft | 351 kts | 132° |
| 2026-05-07 21:19 | -31.56104 | -63.90417 | 14444 ft | 355 kts | 132° |
| 2026-05-07 21:19 | -31.57538 | -63.88045 | 15029 ft | 358 kts | 132° |
| 2026-05-07 21:20 | -31.58988 | -63.85654 | 15603 ft | 362 kts | 132° |
| 2026-05-07 21:20 | -31.60455 | -63.83240 | 16177 ft | 365 kts | 132° |
| 2026-05-07 21:20 | -31.61938 | -63.80797 | 16751 ft | 369 kts | 132° |
| 2026-05-07 21:20 | -31.63435 | -63.78330 | 17337 ft | 373 kts | 132° |
| 2026-05-07 21:21 | -31.64946 | -63.75837 | 17944 ft | 375 kts | 131° |
| 2026-05-07 21:21 | -31.66441 | -63.73359 | 18491 ft | 378 kts | 131° |
| 2026-05-07 21:21 | -31.67965 | -63.70829 | 19027 ft | 381 kts | 132° |
| 2026-05-07 21:21 | -31.69494 | -63.68288 | 19619 ft | 381 kts | 133° |
| 2026-05-07 21:22 | -31.71025 | -63.65744 | 20226 ft | 382 kts | 133° |
| 2026-05-07 21:22 | -31.72559 | -63.63202 | 20817 ft | 382 kts | 134° |
| 2026-05-07 21:22 | -31.74099 | -63.60655 | 21393 ft | 382 kts | 134° |
| 2026-05-07 21:22 | -31.75637 | -63.58106 | 21965 ft | 382 kts | 135° |
| 2026-05-07 21:23 | -31.77174 | -63.55551 | 22533 ft | 383 kts | 135° |
| 2026-05-07 21:23 | -31.78709 | -63.52996 | 23092 ft | 383 kts | 136° |
| 2026-05-07 21:23 | -31.80250 | -63.50432 | 23609 ft | 384 kts | 136° |
| 2026-05-07 21:23 | -31.81792 | -63.47862 | 24054 ft | 385 kts | 136° |
| 2026-05-07 21:24 | -31.83341 | -63.45280 | 24460 ft | 387 kts | 136° |
| 2026-05-07 21:24 | -31.84898 | -63.42686 | 24869 ft | 389 kts | 135° |
| 2026-05-07 21:24 | -31.86453 | -63.40101 | 25122 ft | 395 kts | 135° |
| 2026-05-07 21:24 | -31.88045 | -63.37458 | 25459 ft | 398 kts | 135° |
| 2026-05-07 21:25 | -31.89669 | -63.34809 | 25839 ft | 399 kts | 136° |
| 2026-05-07 21:25 | -31.91362 | -63.32213 | 26228 ft | 399 kts | 137° |
| 2026-05-07 21:25 | -31.93101 | -63.29652 | 26611 ft | 400 kts | 138° |
| 2026-05-07 21:25 | -31.94865 | -63.27096 | 26986 ft | 402 kts | 138° |
| 2026-05-07 21:26 | -31.96633 | -63.24536 | 27345 ft | 404 kts | 138° |
| 2026-05-07 21:26 | -31.98404 | -63.21952 | 27716 ft | 406 kts | 138° |
| 2026-05-07 21:26 | -32.00174 | -63.19345 | 28117 ft | 408 kts | 138° |
| 2026-05-07 21:26 | -32.01941 | -63.16721 | 28554 ft | 409 kts | 138° |
| 2026-05-07 21:27 | -32.03710 | -63.14083 | 28956 ft | 411 kts | 138° |
| 2026-05-07 21:27 | -32.05486 | -63.11433 | 29299 ft | 415 kts | 137° |
| 2026-05-07 21:27 | -32.07295 | -63.08739 | 29510 ft | 421 kts | 136° |
| 2026-05-07 21:27 | -32.09110 | -63.06033 | 29813 ft | 424 kts | 136° |
| 2026-05-07 21:28 | -32.10925 | -63.03325 | 30108 ft | 427 kts | 136° |
| 2026-05-07 21:28 | -32.12771 | -63.00566 | 30374 ft | 430 kts | 136° |
| 2026-05-07 21:28 | -32.14628 | -62.97788 | 30629 ft | 433 kts | 136° |
| 2026-05-07 21:28 | -32.16491 | -62.94996 | 30908 ft | 435 kts | 136° |
| 2026-05-07 21:29 | -32.18363 | -62.92189 | 31285 ft | 435 kts | 136° |
| 2026-05-07 21:29 | -32.20231 | -62.89383 | 31659 ft | 435 kts | 136° |
| 2026-05-07 21:29 | -32.22106 | -62.86566 | 32001 ft | 436 kts | 136° |
| 2026-05-07 21:29 | -32.23915 | -62.83845 | 32326 ft | 437 kts | 135° |
| 2026-05-07 21:30 | -32.25799 | -62.81011 | 32623 ft | 441 kts | 134° |
| 2026-05-07 21:30 | -32.27704 | -62.78148 | 32808 ft | 446 kts | 134° |
| 2026-05-07 21:30 | -32.29626 | -62.75260 | 33086 ft | 448 kts | 134° |
| 2026-05-07 21:30 | -32.31554 | -62.72360 | 33417 ft | 450 kts | 134° |
| 2026-05-07 21:31 | -32.33489 | -62.69439 | 33767 ft | 451 kts | 134° |
| 2026-05-07 21:31 | -32.35422 | -62.66520 | 34064 ft | 452 kts | 133° |
| 2026-05-07 21:31 | -32.37359 | -62.63592 | 34370 ft | 452 kts | 133° |
| 2026-05-07 21:31 | -32.39297 | -62.60661 | 34680 ft | 452 kts | 133° |
| 2026-05-07 21:32 | -32.41237 | -62.57728 | 34822 ft | 453 kts | 133° |
| 2026-05-07 21:32 | -32.43178 | -62.54794 | 34854 ft | 452 kts | 133° |
| 2026-05-07 21:32 | -32.47046 | -62.48960 | 34847 ft | 457 kts | 132° |
| 2026-05-07 21:33 | -32.50976 | -62.43015 | 34849 ft | 460 kts | 132° |
| 2026-05-07 21:33 | -32.54911 | -62.37023 | 34851 ft | 460 kts | 131° |
| 2026-05-07 21:34 | -32.58826 | -62.31041 | 34844 ft | 459 kts | 131° |
| 2026-05-07 21:34 | -32.62749 | -62.25061 | 34838 ft | 459 kts | 132° |
| 2026-05-07 21:35 | -32.66682 | -62.19077 | 34841 ft | 461 kts | 131° |
| 2026-05-07 21:35 | -32.70573 | -62.13009 | 34811 ft | 464 kts | 129° |
| 2026-05-07 21:36 | -32.74231 | -62.06742 | 34821 ft | 466 kts | 127° |
| 2026-05-07 21:36 | -32.77869 | -62.00306 | 34820 ft | 466 kts | 127° |
| 2026-05-07 21:37 | -32.81511 | -61.93981 | 34829 ft | 467 kts | 127° |
| 2026-05-07 21:37 | -32.85220 | -61.87635 | 34806 ft | 468 kts | 127° |
| 2026-05-07 21:38 | -32.88944 | -61.81268 | 34815 ft | 470 kts | 127° |
| 2026-05-07 21:38 | -32.92660 | -61.74871 | 34816 ft | 470 kts | 127° |
| 2026-05-07 21:39 | -32.96373 | -61.68448 | 34817 ft | 471 kts | 126° |
| 2026-05-07 21:39 | -33.00085 | -61.62013 | 34820 ft | 471 kts | 127° |
| 2026-05-07 21:40 | -33.03803 | -61.55578 | 34820 ft | 471 kts | 127° |
| 2026-05-07 21:40 | -33.07515 | -61.49138 | 34824 ft | 471 kts | 126° |
| 2026-05-07 21:41 | -33.11222 | -61.42698 | 34820 ft | 471 kts | 126° |
| 2026-05-07 21:41 | -33.14925 | -61.36253 | 34821 ft | 471 kts | 126° |
| 2026-05-07 21:42 | -33.18622 | -61.29794 | 34795 ft | 472 kts | 125° |
| 2026-05-07 21:42 | -33.22301 | -61.23350 | 34805 ft | 473 kts | 125° |
| 2026-05-07 21:43 | -33.26011 | -61.16845 | 34798 ft | 473 kts | 125° |
| 2026-05-07 21:43 | -33.29722 | -61.10337 | 34796 ft | 474 kts | 125° |
| 2026-05-07 21:44 | -33.33424 | -61.03816 | 34787 ft | 474 kts | 124° |
| 2026-05-07 21:44 | -33.37121 | -60.97260 | 34772 ft | 476 kts | 123° |
| 2026-05-07 21:45 | -33.40820 | -60.90675 | 34778 ft | 477 kts | 123° |
| 2026-05-07 21:45 | -33.44521 | -60.84075 | 34777 ft | 478 kts | 123° |
| 2026-05-07 21:46 | -33.48224 | -60.77475 | 34782 ft | 478 kts | 123° |
| 2026-05-07 21:46 | -33.51909 | -60.70897 | 34757 ft | 480 kts | 122° |
| 2026-05-07 21:47 | -33.55629 | -60.64223 | 34755 ft | 482 kts | 122° |
| 2026-05-07 21:47 | -33.59359 | -60.57521 | 34755 ft | 484 kts | 122° |
| 2026-05-07 21:48 | -33.63094 | -60.50803 | 34610 ft | 482 kts | 122° |
| 2026-05-07 21:48 | -33.64946 | -60.47471 | 34379 ft | 478 kts | 122° |
| 2026-05-07 21:48 | -33.66781 | -60.44171 | 34131 ft | 476 kts | 120° |
| 2026-05-07 21:49 | -33.68618 | -60.40864 | 33905 ft | 477 kts | 120° |
| 2026-05-07 21:49 | -33.70457 | -60.37551 | 33685 ft | 475 kts | 120° |
| 2026-05-07 21:49 | -33.72285 | -60.34252 | 33411 ft | 474 kts | 119° |
| 2026-05-07 21:49 | -33.74109 | -60.30952 | 33143 ft | 473 kts | 119° |
| 2026-05-07 21:50 | -33.75926 | -60.27653 | 32883 ft | 472 kts | 118° |
| 2026-05-07 21:50 | -33.77730 | -60.24374 | 32534 ft | 469 kts | 118° |
| 2026-05-07 21:50 | -33.79532 | -60.21103 | 32006 ft | 468 kts | 118° |
| 2026-05-07 21:50 | -33.81307 | -60.17876 | 31495 ft | 467 kts | 117° |
| 2026-05-07 21:51 | -33.83096 | -60.14618 | 31011 ft | 466 kts | 116° |
| 2026-05-07 21:51 | -33.84870 | -60.11393 | 30588 ft | 464 kts | 116° |
| 2026-05-07 21:51 | -33.86660 | -60.08171 | 30137 ft | 463 kts | 116° |
| 2026-05-07 21:51 | -33.88458 | -60.04960 | 29688 ft | 462 kts | 116° |
| 2026-05-07 21:52 | -33.90257 | -60.01766 | 29234 ft | 460 kts | 116° |
| 2026-05-07 21:52 | -33.92046 | -59.98593 | 28828 ft | 456 kts | 116° |
| 2026-05-07 21:52 | -33.93824 | -59.95431 | 28425 ft | 454 kts | 116° |
| 2026-05-07 21:52 | -33.95586 | -59.92290 | 27999 ft | 451 kts | 116° |
| 2026-05-07 21:53 | -33.97334 | -59.89162 | 27597 ft | 449 kts | 116° |
| 2026-05-07 21:53 | -33.99071 | -59.86041 | 27192 ft | 446 kts | 115° |
| 2026-05-07 21:53 | -34.00791 | -59.82946 | 26790 ft | 443 kts | 115° |
| 2026-05-07 21:53 | -34.02499 | -59.79863 | 26384 ft | 441 kts | 115° |
| 2026-05-07 21:54 | -34.04205 | -59.76782 | 25964 ft | 440 kts | 115° |
| 2026-05-07 21:54 | -34.05329 | -59.74749 | 25676 ft | 439 kts | 115° |
| 2026-05-07 21:54 | -34.07491 | -59.70840 | 25147 ft | 437 kts | 115° |
| 2026-05-07 21:54 | -34.09175 | -59.67797 | 24709 ft | 436 kts | 116° |
| 2026-05-07 21:55 | -34.10860 | -59.64750 | 24284 ft | 435 kts | 116° |
| 2026-05-07 21:55 | -34.12542 | -59.61709 | 23842 ft | 435 kts | 116° |
| 2026-05-07 21:55 | -34.14222 | -59.58669 | 23378 ft | 434 kts | 116° |
| 2026-05-07 21:55 | -34.15894 | -59.55646 | 22910 ft | 433 kts | 116° |
| 2026-05-07 21:56 | -34.16999 | -59.53643 | 22599 ft | 431 kts | 116° |
| 2026-05-07 21:56 | -34.18663 | -59.50629 | 22165 ft | 428 kts | 117° |
| 2026-05-07 21:56 | -34.20309 | -59.47648 | 21720 ft | 426 kts | 117° |
| 2026-05-07 21:56 | -34.21950 | -59.44674 | 21261 ft | 423 kts | 118° |
| 2026-05-07 21:57 | -34.23566 | -59.41707 | 20832 ft | 420 kts | 118° |
| 2026-05-07 21:57 | -34.25140 | -59.38739 | 20401 ft | 417 kts | 118° |
| 2026-05-07 21:57 | -34.26686 | -59.35780 | 19956 ft | 415 kts | 118° |
| 2026-05-07 21:57 | -34.28203 | -59.32861 | 19527 ft | 413 kts | 119° |
| 2026-05-07 21:58 | -34.29730 | -59.29927 | 19079 ft | 411 kts | 119° |
| 2026-05-07 21:58 | -34.31251 | -59.27010 | 18665 ft | 409 kts | 120° |
| 2026-05-07 21:58 | -34.32775 | -59.24098 | 18228 ft | 408 kts | 120° |
| 2026-05-07 21:58 | -34.34294 | -59.21204 | 17768 ft | 406 kts | 121° |
| 2026-05-07 21:59 | -34.35803 | -59.18335 | 17330 ft | 403 kts | 121° |
| 2026-05-07 21:59 | -34.37286 | -59.15516 | 16915 ft | 398 kts | 121° |
| 2026-05-07 21:59 | -34.38765 | -59.12698 | 16509 ft | 394 kts | 121° |
| 2026-05-07 21:59 | -34.40222 | -59.09912 | 16097 ft | 390 kts | 121° |
| 2026-05-07 22:00 | -34.41659 | -59.07158 | 15746 ft | 384 kts | 121° |
| 2026-05-07 22:00 | -34.43085 | -59.04426 | 15353 ft | 380 kts | 122° |
| 2026-05-07 22:00 | -34.44482 | -59.01753 | 14860 ft | 368 kts | 122° |
| 2026-05-07 22:00 | -34.45822 | -58.99183 | 14474 ft | 354 kts | 122° |
| 2026-05-07 22:01 | -34.47141 | -58.96654 | 14102 ft | 352 kts | 122° |
| 2026-05-07 22:01 | -34.48448 | -58.94146 | 13718 ft | 351 kts | 122° |
| 2026-05-07 22:01 | -34.49752 | -58.91646 | 13317 ft | 349 kts | 122° |
| 2026-05-07 22:01 | -34.51041 | -58.89167 | 12919 ft | 346 kts | 122° |
| 2026-05-07 22:02 | -34.52318 | -58.86711 | 12543 ft | 343 kts | 122° |
| 2026-05-07 22:02 | -34.53586 | -58.84267 | 12165 ft | 341 kts | 122° |
| 2026-05-07 22:02 | -34.54846 | -58.81838 | 11773 ft | 339 kts | 122° |
| 2026-05-07 22:02 | -34.56052 | -58.79431 | 11401 ft | 337 kts | 117° |
| 2026-05-07 22:03 | -34.56910 | -58.76802 | 11030 ft | 334 kts | 107° |
| 2026-05-07 22:03 | -34.57639 | -58.74125 | 10644 ft | 333 kts | 108° |
| 2026-05-07 22:03 | -34.58373 | -58.71462 | 10267 ft | 332 kts | 108° |
| 2026-05-07 22:03 | -34.59111 | -58.68807 | 9885 ft | 331 kts | 108° |
| 2026-05-07 22:04 | -34.59837 | -58.66197 | 9735 ft | 322 kts | 108° |
| 2026-05-07 22:04 | -34.60545 | -58.63641 | 9275 ft | 317 kts | 109° |
| 2026-05-07 22:04 | -34.61238 | -58.61136 | 8766 ft | 309 kts | 109° |
| 2026-05-07 22:04 | -34.61907 | -58.58681 | 8309 ft | 301 kts | 109° |
| 2026-05-07 22:05 | -34.62545 | -58.56297 | 7904 ft | 293 kts | 109° |
| 2026-05-07 22:05 | -34.63160 | -58.53974 | 7520 ft | 285 kts | 108° |
| 2026-05-07 22:05 | -34.63753 | -58.51717 | 7141 ft | 285 kts | 108° |
| 2026-05-07 22:05 | -34.64360 | -58.49413 | 6749 ft | 288 kts | 109° |
| 2026-05-07 22:06 | -34.64974 | -58.47089 | 6337 ft | 287 kts | 109° |
| 2026-05-07 22:06 | -34.65579 | -58.44809 | 5944 ft | 280 kts | 110° |
| 2026-05-07 22:06 | -34.66167 | -58.42590 | 5539 ft | 273 kts | 111° |
| 2026-05-07 22:06 | -34.66738 | -58.40422 | 5155 ft | 266 kts | 112° |
| 2026-05-07 22:07 | -34.67294 | -58.38307 | 4772 ft | 259 kts | 113° |
| 2026-05-07 22:07 | -34.67835 | -58.36249 | 4396 ft | 252 kts | 114° |
| 2026-05-07 22:07 | -34.68348 | -58.34262 | 4146 ft | 240 kts | 112° |
| 2026-05-07 22:07 | -34.68680 | -58.32345 | 4069 ft | 228 kts | 97° |
| 2026-05-07 22:08 | -34.68257 | -58.30523 | 4048 ft | 223 kts | 55° |
| 2026-05-07 22:08 | -34.67171 | -58.29340 | 3993 ft | 200 kts | 20° |
| 2026-05-07 22:08 | -34.65874 | -58.28807 | 3591 ft | 199 kts | 2° |
| 2026-05-07 22:08 | -34.64489 | -58.28779 | 3064 ft | 197 kts | 342° |
| 2026-05-07 22:09 | -34.63248 | -58.29279 | 2616 ft | 179 kts | 321° |
| 2026-05-07 22:09 | -34.62319 | -58.30153 | 2257 ft | 160 kts | 302° |
| 2026-05-07 22:09 | -34.61695 | -58.31194 | 1956 ft | 148 kts | 295° |
| 2026-05-07 22:09 | -34.61139 | -58.32187 | 1706 ft | 136 kts | 295° |
| 2026-05-07 22:10 | -34.60614 | -58.33126 | 1495 ft | 133 kts | 294° |
| 2026-05-07 22:10 | -34.60103 | -58.34046 | 1331 ft | 131 kts | 295° |
| 2026-05-07 22:10 | -34.59589 | -58.34974 | 1151 ft | 132 kts | 295° |
| 2026-05-07 22:10 | -34.59082 | -58.35885 | 974 ft | 131 kts | 296° |
| 2026-05-07 22:11 | -34.58581 | -58.36810 | 806 ft | 132 kts | 297° |
| 2026-05-07 22:11 | -34.58083 | -58.37747 | 669 ft | 133 kts | 301° |
| 2026-05-07 22:11 | -34.57546 | -58.38652 | 512 ft | 131 kts | 301° |
| 2026-05-07 22:11 | -34.57018 | -58.39602 | 657 ft | 136 kts | 301° |
| 2026-05-07 22:12 | -34.56492 | -58.40492 | 1263 ft | 125 kts | 297° |
| 2026-05-07 22:12 | -34.55978 | -58.41349 | 1638 ft | 126 kts | 296° |
| 2026-05-07 22:12 | -34.55469 | -58.42232 | 1979 ft | 129 kts | 294° |
| 2026-05-07 22:12 | -34.54968 | -58.43152 | 2335 ft | 132 kts | 293° |
| 2026-05-07 22:13 | -34.54450 | -58.44105 | 2743 ft | 137 kts | 295° |
| 2026-05-07 22:13 | -34.54030 | -58.45119 | 3002 ft | 139 kts | 280° |
| 2026-05-07 22:13 | -34.53517 | -58.46129 | 2922 ft | 147 kts | 311° |
| 2026-05-07 22:13 | -34.52525 | -58.46602 | 3023 ft | 164 kts | 348° |
| 2026-05-07 22:14 | -34.51351 | -58.46279 | 3183 ft | 188 kts | 25° |
| 2026-05-07 22:14 | -34.50338 | -58.45174 | 3344 ft | 199 kts | 58° |
| 2026-05-07 22:14 | -34.49880 | -58.43692 | 3376 ft | 178 kts | 93° |
| 2026-05-07 22:14 | -34.50143 | -58.42232 | 3417 ft | 188 kts | 125° |
| 2026-05-07 22:15 | -34.50811 | -58.40817 | 3469 ft | 196 kts | 130° |
| 2026-05-07 22:15 | -34.51522 | -58.39418 | 3244 ft | 193 kts | 130° |
| 2026-05-07 22:15 | -34.52226 | -58.38030 | 3047 ft | 193 kts | 130° |
| 2026-05-07 22:15 | -34.52932 | -58.36639 | 2992 ft | 194 kts | 130° |
| 2026-05-07 22:16 | -34.53624 | -58.35229 | 2998 ft | 197 kts | 122° |
| 2026-05-07 22:16 | -34.54142 | -58.33679 | 3003 ft | 198 kts | 120° |
| 2026-05-07 22:16 | -34.54643 | -58.32130 | 3002 ft | 198 kts | 119° |
| 2026-05-07 22:16 | -34.55145 | -58.30572 | 2997 ft | 198 kts | 119° |
| 2026-05-07 22:17 | -34.55640 | -58.29030 | 3005 ft | 198 kts | 120° |
| 2026-05-07 22:17 | -34.56142 | -58.27466 | 3003 ft | 200 kts | 118° |
| 2026-05-07 22:17 | -34.56645 | -58.25889 | 3004 ft | 199 kts | 117° |
| 2026-05-07 22:17 | -34.57144 | -58.24322 | 3007 ft | 199 kts | 118° |
| 2026-05-07 22:18 | -34.57631 | -58.22787 | 3000 ft | 191 kts | 118° |
| 2026-05-07 22:18 | -34.58574 | -58.19829 | 2991 ft | 185 kts | 119° |
| 2026-05-07 22:18 | -34.59135 | -58.18472 | 3006 ft | 175 kts | 138° |
| 2026-05-07 22:19 | -34.60009 | -58.17539 | 3004 ft | 163 kts | 160° |
| 2026-05-07 22:19 | -34.61025 | -58.17093 | 3004 ft | 155 kts | 180° |
| 2026-05-07 22:19 | -34.62123 | -58.16909 | 3010 ft | 165 kts | 180° |
| 2026-05-07 22:19 | -34.63307 | -58.16704 | 2987 ft | 177 kts | 179° |
| 2026-05-07 22:20 | -34.64553 | -58.16479 | 3006 ft | 182 kts | 179° |
| 2026-05-07 22:20 | -34.65808 | -58.16248 | 3005 ft | 182 kts | 179° |
| 2026-05-07 22:20 | -34.67056 | -58.16051 | 2992 ft | 178 kts | 188° |
| 2026-05-07 22:20 | -34.68154 | -58.16539 | 2989 ft | 168 kts | 225° |
| 2026-05-07 22:21 | -34.68694 | -58.17763 | 2986 ft | 170 kts | 261° |
| 2026-05-07 22:21 | -34.68411 | -58.19174 | 2988 ft | 182 kts | 295° |
| 2026-05-07 22:21 | -34.67708 | -58.20448 | 3007 ft | 184 kts | 296° |
| 2026-05-07 22:21 | -34.66987 | -58.21729 | 3007 ft | 183 kts | 296° |
| 2026-05-07 22:22 | -34.66272 | -58.22997 | 2991 ft | 181 kts | 296° |
| 2026-05-07 22:22 | -34.65557 | -58.24269 | 2997 ft | 183 kts | 296° |
| 2026-05-07 22:22 | -34.64830 | -58.25567 | 3000 ft | 184 kts | 295° |
| 2026-05-07 22:22 | -34.64118 | -58.26840 | 2766 ft | 182 kts | 296° |
| 2026-05-07 22:23 | -34.63417 | -58.28091 | 2490 ft | 175 kts | 295° |
| 2026-05-07 22:23 | -34.62754 | -58.29269 | 2241 ft | 162 kts | 295° |
| 2026-05-07 22:23 | -34.62143 | -58.30356 | 2028 ft | 150 kts | 295° |
| 2026-05-07 22:23 | -34.61577 | -58.31370 | 1830 ft | 141 kts | 295° |
| 2026-05-07 22:24 | -34.61042 | -58.32331 | 1684 ft | 134 kts | 294° |
| 2026-05-07 22:24 | -34.60528 | -58.33257 | 1496 ft | 131 kts | 294° |
| 2026-05-07 22:24 | -34.60023 | -58.34171 | 1317 ft | 130 kts | 294° |
| 2026-05-07 22:24 | -34.59530 | -58.35090 | 1131 ft | 130 kts | 294° |
| 2026-05-07 22:25 | -34.59036 | -58.36030 | 938 ft | 132 kts | 295° |
| 2026-05-07 22:25 | -34.58530 | -58.36952 | 818 ft | 131 kts | 297° |
| 2026-05-07 22:25 | -34.58017 | -58.37838 | 654 ft | 129 kts | 299° |
| 2026-05-07 22:25 | -34.57509 | -58.38750 | 472 ft | 132 kts | 301° |
| 2026-05-07 22:26 | -34.56987 | -58.39661 | 312 ft | 131 kts | 300° |
| 2026-05-07 22:26 | -34.56482 | -58.40581 | 91 ft | 130 kts | 302° |
| 2026-05-07 22:26 | -34.55987 | -58.41452 | 28 ft | 109 kts | 301° |
| 2026-05-07 22:26 | -34.55665 | -58.42046 | 27 ft | 59 kts | 304° |
| 2026-05-07 22:27 | -34.55520 | -58.42305 | 28 ft | 22 kts | 304° |
| 2026-05-07 22:27 | -34.55441 | -58.42443 | 29 ft | 20 kts | 304° |
| 2026-05-07 22:27 | -34.55373 | -58.42490 | 25 ft | 13 kts | 39° |
| 2026-05-07 22:27 | -34.55372 | -58.42379 | 25 ft | 15 kts | 108° |
| 2026-05-07 22:28 | -34.55432 | -58.42274 | 29 ft | 16 kts | 127° |
| 2026-05-07 22:28 | -34.55506 | -58.42156 | 28 ft | 19 kts | 127° |
| 2026-05-07 22:28 | -34.55588 | -58.42022 | 27 ft | 21 kts | 124° |
| 2026-05-07 22:28 | -34.55666 | -58.41882 | 28 ft | 21 kts | 124° |
| 2026-05-07 22:29 | -34.55740 | -58.41746 | 28 ft | 20 kts | 118° |
| 2026-05-07 22:29 | -34.55801 | -58.41596 | 26 ft | 18 kts | 116° |
| 2026-05-07 22:29 | -34.55862 | -58.41451 | 25 ft | 20 kts | 117° |
| 2026-05-07 22:29 | -34.55907 | -58.41345 | 29 ft | 10 kts | 114° |
| 2026-05-07 22:30 | -34.55868 | -58.41284 | 25 ft | 11 kts | 30° |
| 2026-05-07 22:30 | -34.55828 | -58.41299 | 28 ft | 5 kts | 307° |
| 2026-05-07 22:30 | -34.55804 | -58.41345 | 29 ft | 5 kts | 306° |
| 2026-05-07 22:30 | -34.55774 | -58.41337 | 27 ft | 3 kts | 28° |
| 2026-05-07 22:31 | -34.55755 | -58.41321 | 25 ft | 0 kts | 35° |